createdAt,value
2019-01-18T04:00:32.449Z,91.00
2019-01-18T04:03:20.329Z,91.10
2019-01-18T04:06:08.251Z,90.90
2019-01-18T04:08:56.138Z,91.00
2019-01-18T04:11:44.041Z,90.80
2019-01-18T04:14:31.921Z,91.10
2019-01-18T04:20:14.389Z,91.20
2019-01-18T04:23:02.549Z,91.20
2019-01-18T04:25:50.434Z,91.20
2019-01-18T04:28:38.341Z,91.20
2019-01-18T04:31:26.222Z,91.50
2019-01-18T04:34:14.144Z,91.90
2019-01-18T04:37:02.018Z,92.10
2019-01-18T04:39:50.537Z,92.10
2019-01-18T04:42:39.525Z,92.40
2019-01-18T04:45:27.430Z,92.70
2019-01-18T04:48:15.310Z,92.70
2019-01-18T04:51:03.254Z,92.80
2019-01-18T04:53:51.135Z,93.10
2019-01-18T04:56:39.045Z,93.50
2019-01-18T04:59:26.923Z,94.10
2019-01-18T05:02:05.603Z,94.60
2019-01-18T05:04:53.480Z,94.80
2019-01-18T05:07:41.406Z,94.70
2019-01-18T05:10:29.398Z,95.20
2019-01-18T05:13:17.301Z,95.50
2019-01-18T05:19:13.879Z,95.00
2019-01-18T05:22:01.758Z,94.90
2019-01-18T05:24:49.740Z,94.90
2019-01-18T05:27:37.618Z,94.80
2019-01-18T05:30:26.341Z,94.70
2019-01-18T05:33:14.225Z,94.50
2019-01-18T05:36:02.142Z,94.40
2019-01-18T05:38:50.281Z,94.40
2019-01-18T05:41:38.265Z,94.40
2019-01-18T05:44:26.161Z,94.10
2019-01-18T05:47:14.062Z,94.00
2019-01-18T05:50:01.943Z,93.60
2019-01-18T05:52:49.856Z,93.40
2019-01-18T05:55:37.730Z,93.30
2019-01-18T05:58:25.646Z,93.00
2019-01-18T06:01:14.451Z,92.70
2019-01-18T06:03:52.909Z,92.20
2019-01-18T06:06:40.784Z,92.40
2019-01-18T06:09:28.697Z,92.00
2019-01-18T06:12:16.577Z,92.40
2019-01-18T06:15:05.037Z,92.20
2019-01-18T06:17:52.917Z,92.00
2019-01-18T06:20:40.826Z,92.00
2019-01-18T06:23:28.711Z,92.10
2019-01-18T06:26:16.622Z,92.00
2019-01-18T06:29:04.524Z,92.10
2019-01-18T06:31:52.422Z,92.10
2019-01-18T06:34:40.308Z,92.10
2019-01-18T06:37:28.216Z,92.00
2019-01-18T06:40:16.109Z,91.90
2019-01-18T06:43:04.073Z,91.80
2019-01-18T06:45:42.988Z,91.70
2019-01-18T06:51:25.749Z,91.60
2019-01-18T06:54:13.654Z,91.60
2019-01-18T06:57:01.570Z,91.60
2019-01-18T06:59:49.457Z,91.40
2019-01-18T07:02:37.361Z,91.30
2019-01-18T07:05:25.247Z,91.00
2019-01-18T07:08:13.158Z,91.00
2019-01-18T07:11:01.034Z,91.30
2019-01-18T07:13:48.937Z,91.20
2019-01-18T07:16:36.822Z,91.00
2019-01-18T07:19:24.734Z,90.70
2019-01-18T07:22:12.617Z,90.80
2019-01-18T07:25:00.805Z,90.80
2019-01-18T07:27:48.694Z,90.70
2019-01-18T07:30:37.885Z,91.00
2019-01-18T07:33:25.769Z,91.00
2019-01-18T07:36:13.710Z,91.20
2019-01-18T07:39:01.670Z,91.20
2019-01-18T07:41:49.579Z,91.30
2019-01-18T07:44:37.453Z,91.20
2019-01-18T07:47:16.113Z,91.10
2019-01-18T07:50:04.118Z,91.30
2019-01-18T07:52:52.018Z,91.30
2019-01-18T07:55:39.906Z,91.10
2019-01-18T07:58:27.809Z,91.20
2019-01-18T08:01:21.879Z,91.60
2019-01-18T08:04:05.314Z,91.90
2019-01-18T08:06:53.210Z,92.30
2019-01-18T08:09:41.125Z,92.30
2019-01-18T08:12:29.005Z,92.20
2019-01-18T08:15:18.001Z,92.20
2019-01-18T08:18:05.886Z,92.00
2019-01-18T08:20:53.794Z,91.90
2019-01-18T08:23:41.680Z,92.00
2019-01-18T08:26:29.589Z,91.70
2019-01-18T08:29:17.477Z,91.80
2019-01-18T08:32:05.386Z,91.60
2019-01-18T08:34:53.269Z,91.60
2019-01-18T08:37:41.192Z,89.90
2019-01-18T08:40:48.371Z,82.50
2019-01-18T08:43:36.280Z,75.80
2019-01-18T08:46:24.158Z,68.20
2019-01-18T08:49:02.890Z,68.20
2019-01-18T08:51:50.768Z,71.60
2019-01-18T08:54:38.673Z,76.70
2019-01-18T08:57:26.563Z,78.20
2019-01-18T09:00:15.757Z,79.70
2019-01-18T09:03:03.645Z,80.90
2019-01-18T09:05:51.544Z,80.60
2019-01-18T09:08:39.425Z,79.10
2019-01-18T09:11:27.345Z,78.70
2019-01-18T09:14:19.410Z,75.70
2019-01-18T09:17:05.245Z,74.50
2019-01-18T09:19:53.161Z,74.70
2019-01-18T09:22:41.061Z,71.80
2019-01-18T09:25:28.941Z,64.40
2019-01-18T09:28:16.853Z,57.40
2019-01-18T09:31:04.821Z,55.40
2019-01-18T09:33:52.742Z,56.70
2019-01-18T09:36:40.617Z,58.90
2019-01-18T09:39:28.527Z,59.10
2019-01-18T09:42:16.405Z,59.80
2019-01-18T09:45:04.901Z,62.50
2019-01-18T09:47:52.786Z,67.60
2019-01-18T09:50:33.078Z,70.00
2019-01-18T09:53:11.511Z,71.60
2019-01-18T09:55:59.410Z,73.80
2019-01-18T09:58:47.295Z,77.40
2019-01-18T10:01:35.201Z,78.60
2019-01-18T10:04:23.077Z,79.90
2019-01-18T10:07:10.990Z,82.00
2019-01-18T10:09:58.874Z,83.10
2019-01-18T10:12:46.925Z,83.00
2019-01-18T10:15:39.057Z,82.90
2019-01-18T10:18:26.955Z,80.10
2019-01-18T10:21:14.850Z,74.90
2019-01-18T10:24:02.761Z,72.50
2019-01-18T10:26:50.642Z,73.60
2019-01-18T10:29:38.546Z,74.30
2019-01-18T10:32:26.424Z,75.80
2019-01-18T10:35:14.539Z,78.30
2019-01-18T10:38:02.429Z,78.90
2019-01-18T10:40:50.324Z,80.30
2019-01-18T10:46:45.253Z,80.70
2019-01-18T10:49:33.138Z,80.00
2019-01-18T10:52:11.794Z,80.00
2019-01-18T10:54:59.678Z,80.50
2019-01-18T10:57:47.577Z,80.30
2019-01-18T11:00:36.685Z,79.30
2019-01-18T11:03:24.585Z,78.90
2019-01-18T11:06:12.785Z,79.50
2019-01-18T11:09:00.685Z,79.00
2019-01-18T11:11:48.639Z,78.80
2019-01-18T11:14:36.546Z,78.80
2019-01-18T11:17:24.422Z,78.90
2019-01-18T11:20:13.605Z,79.30
2019-01-18T11:23:01.485Z,79.70
2019-01-18T11:25:49.386Z,79.30
2019-01-18T11:28:37.535Z,79.50
2019-01-18T11:31:25.445Z,79.50
2019-01-18T11:34:13.321Z,79.80
2019-01-18T11:37:01.226Z,80.70
2019-01-18T11:39:49.208Z,80.90
2019-01-18T11:42:37.114Z,81.30
2019-01-18T11:45:25.002Z,81.90
2019-01-18T11:48:12.897Z,81.70
2019-01-18T11:51:00.786Z,82.60
2019-01-18T11:53:40.897Z,82.10
2019-01-18T11:56:28.873Z,81.70
2019-01-18T11:59:16.801Z,81.80
2019-01-18T12:05:11.730Z,81.10
2019-01-18T12:07:59.642Z,80.70
2019-01-18T12:10:47.547Z,80.00
2019-01-18T12:13:35.437Z,79.30
2019-01-18T12:16:23.370Z,79.90
2019-01-18T12:19:11.254Z,79.40
2019-01-18T12:21:59.169Z,78.80
2019-01-18T12:24:47.055Z,77.40
2019-01-18T12:27:34.953Z,77.10
2019-01-18T12:30:26.845Z,76.30
2019-01-18T12:33:14.748Z,70.00
2019-01-18T12:36:02.664Z,65.40
2019-01-18T12:38:50.576Z,65.10
2019-01-18T12:41:38.459Z,66.30
2019-01-18T12:44:26.377Z,66.80
2019-01-18T12:47:14.328Z,69.00
2019-01-18T12:50:02.408Z,71.30
2019-01-18T12:52:50.314Z,72.30
2019-01-18T12:55:29.014Z,72.60
2019-01-18T12:58:16.890Z,74.20
2019-01-18T13:01:04.830Z,75.20
2019-01-18T13:03:52.714Z,74.50
2019-01-18T13:09:34.439Z,74.90
2019-01-18T13:14:57.380Z,73.10
2019-01-18T13:17:46.458Z,75.90
2019-01-18T13:20:34.333Z,77.50
2019-01-18T13:23:22.245Z,78.20
2019-01-18T13:26:10.126Z,77.90
2019-01-18T13:28:58.038Z,77.80
2019-01-18T13:31:45.917Z,77.90
2019-01-18T13:34:33.829Z,78.80
2019-01-18T13:37:21.713Z,79.50
2019-01-18T13:40:11.466Z,80.20
2019-01-18T13:42:59.345Z,79.50
2019-01-18T13:45:47.271Z,78.60
2019-01-18T13:48:35.147Z,79.40
2019-01-18T13:51:23.096Z,78.40
2019-01-18T13:54:10.970Z,77.70
2019-01-18T13:56:51.387Z,78.30
2019-01-18T13:59:29.914Z,78.00
2019-01-18T14:02:17.836Z,77.50
2019-01-18T14:05:06.098Z,77.40
2019-01-18T14:07:54.018Z,76.80
2019-01-18T14:10:41.897Z,76.60
2019-01-18T14:13:29.792Z,76.20
2019-01-18T14:16:17.687Z,74.90
2019-01-18T14:19:05.595Z,74.70
2019-01-18T14:21:53.762Z,74.70
2019-01-18T14:24:41.674Z,76.40
2019-01-18T14:27:29.810Z,77.20
2019-01-18T14:30:18.857Z,77.40
2019-01-18T14:33:06.762Z,76.50
2019-01-18T14:35:54.678Z,77.10
2019-01-18T14:38:42.562Z,76.60
2019-01-18T14:41:31.227Z,77.70
2019-01-18T14:44:20.079Z,78.60
2019-01-18T14:47:08.030Z,78.30
2019-01-18T14:49:55.926Z,78.80
2019-01-18T14:52:44.018Z,78.90
2019-01-18T14:55:31.902Z,79.70
2019-01-18T14:58:19.871Z,80.20
2019-01-18T15:01:07.778Z,79.50
2019-01-18T15:03:55.693Z,80.40
2019-01-18T15:06:43.577Z,80.40
2019-01-18T15:09:31.738Z,80.70
2019-01-18T15:12:19.618Z,81.00
2019-01-18T15:15:08.531Z,82.00
2019-01-18T15:17:56.409Z,82.40
2019-01-18T15:20:44.723Z,82.50
2019-01-18T15:23:32.694Z,83.70
2019-01-18T15:26:21.021Z,83.90
2019-01-18T15:29:08.897Z,83.90
2019-01-18T15:31:56.813Z,83.50
2019-01-18T15:34:44.925Z,84.00
2019-01-18T15:37:32.896Z,83.30
2019-01-18T15:40:21.865Z,83.40
2019-01-18T15:46:07.972Z,83.90
2019-01-18T15:48:56.926Z,84.30
2019-01-18T15:51:45.493Z,84.60
2019-01-18T15:54:33.406Z,84.60
2019-01-18T15:57:21.339Z,84.80
2019-01-18T15:59:59.871Z,85.00
2019-01-18T16:02:47.809Z,85.00
2019-01-18T16:05:35.722Z,85.10
2019-01-18T16:08:23.617Z,85.70
2019-01-18T16:11:11.534Z,86.40
2019-01-18T16:13:59.429Z,86.70
2019-01-18T16:16:49.072Z,86.70
2019-01-18T16:19:36.969Z,87.00
2019-01-18T16:22:24.988Z,87.10
2019-01-18T16:25:32.210Z,87.50
2019-01-18T16:28:20.106Z,88.00
2019-01-18T16:31:07.994Z,89.00
2019-01-18T16:33:55.926Z,89.40
2019-01-18T16:36:44.210Z,89.90
2019-01-18T16:48:14.494Z,90.30
2019-01-18T16:51:02.429Z,90.50
2019-01-18T16:53:50.310Z,90.70
2019-01-18T16:56:38.269Z,90.70
2019-01-18T16:59:26.149Z,90.70
2019-01-18T17:02:06.578Z,90.80
2019-01-18T17:04:47.062Z,91.00
2019-01-18T17:07:25.794Z,91.10
2019-01-18T17:10:14.089Z,91.20
2019-01-18T17:13:02.290Z,91.30
2019-01-18T17:15:50.447Z,91.50
2019-01-18T17:21:36.290Z,91.90
2019-01-18T17:24:24.177Z,91.90
2019-01-18T17:27:12.126Z,91.80
2019-01-18T17:30:00.023Z,91.90
2019-01-18T17:32:47.999Z,92.10
2019-01-18T17:35:55.439Z,92.10
2019-01-18T17:39:02.680Z,92.30
2019-01-18T17:42:09.868Z,92.30
2019-01-18T17:45:17.070Z,92.30
2019-01-18T17:48:08.317Z,92.30
2019-01-18T17:51:15.548Z,92.50
2019-01-18T17:54:22.758Z,92.60
2019-01-18T17:57:29.973Z,92.80
2019-01-18T18:00:37.233Z,92.70
2019-01-18T18:03:44.719Z,92.90
2019-01-18T18:09:33.097Z,93.00
2019-01-18T18:12:40.302Z,93.10
2019-01-18T18:15:47.523Z,93.00
2019-01-18T18:18:54.707Z,92.90
2019-01-18T18:22:02.052Z,92.80
2019-01-18T18:25:09.257Z,92.80
2019-01-18T18:28:16.521Z,92.70
2019-01-18T18:31:23.822Z,93.00
2019-01-18T18:34:31.033Z,92.90
2019-01-18T18:37:38.270Z,93.00
2019-01-18T18:40:45.516Z,93.00
2019-01-18T18:43:52.775Z,93.00
2019-01-18T18:46:59.962Z,93.00
2019-01-18T18:50:07.229Z,92.80
2019-01-18T18:53:00.133Z,93.00
2019-01-18T18:55:55.812Z,93.10
2019-01-18T18:59:01.273Z,93.10
2019-01-18T19:01:54.260Z,93.20
2019-01-18T19:04:39.706Z,93.00
2019-01-18T19:07:46.918Z,93.10
2019-01-18T19:10:54.131Z,93.10
2019-01-18T19:14:01.331Z,93.10
2019-01-18T19:17:08.556Z,93.40
2019-01-18T19:20:15.746Z,93.30
2019-01-18T19:23:08.618Z,93.40
2019-01-18T19:26:15.834Z,93.40
2019-01-18T19:29:23.042Z,93.40
2019-01-18T19:32:30.250Z,93.40
2019-01-18T19:35:37.442Z,93.50
2019-01-18T19:38:44.653Z,93.50
2019-01-18T19:41:51.841Z,93.50
2019-01-18T19:44:59.050Z,93.40
2019-01-18T19:48:06.242Z,93.30
2019-01-18T19:50:58.565Z,93.20
2019-01-18T19:54:05.794Z,93.40
2019-01-18T19:57:12.982Z,93.30
2019-01-18T20:00:20.203Z,93.10
2019-01-18T20:03:27.409Z,93.00
2019-01-18T20:06:25.938Z,93.20
2019-01-18T20:09:33.138Z,93.00
2019-01-18T20:12:40.346Z,92.80
2019-01-18T20:15:31.507Z,92.70
2019-01-18T20:18:38.683Z,92.50
2019-01-18T20:21:45.889Z,92.50
2019-01-18T20:24:53.074Z,92.60
2019-01-18T20:28:00.307Z,92.70
2019-01-18T20:31:07.493Z,92.80
2019-01-18T20:34:18.354Z,92.70
2019-01-18T20:37:23.654Z,92.40
2019-01-18T20:40:31.210Z,92.60
2019-01-18T20:43:38.684Z,92.70
2019-01-18T20:46:45.870Z,92.50
2019-01-18T20:49:36.952Z,92.60
2019-01-18T20:52:44.314Z,92.70
2019-01-18T20:55:51.521Z,92.60
2019-01-18T20:58:46.315Z,92.60
2019-01-18T21:01:48.205Z,92.70
2019-01-18T21:04:55.419Z,92.90
2019-01-18T21:07:59.478Z,93.00
2019-01-18T21:11:06.685Z,93.10
2019-01-18T21:14:13.869Z,93.30
2019-01-18T21:17:21.097Z,93.30
2019-01-18T21:20:28.286Z,93.20
2019-01-18T21:23:35.502Z,93.20
2019-01-18T21:26:42.710Z,93.20
2019-01-18T21:29:44.215Z,93.10
2019-01-18T21:32:51.481Z,92.90
2019-01-18T21:35:43.986Z,92.90
2019-01-18T21:38:51.193Z,93.00
2019-01-18T21:41:58.420Z,93.50
2019-01-18T21:45:05.711Z,93.20
2019-01-18T21:48:12.934Z,93.30
2019-01-18T21:51:20.122Z,93.50
2019-01-18T21:54:11.238Z,93.50
2019-01-18T21:57:04.321Z,93.40
2019-01-18T22:00:11.530Z,93.40
2019-01-18T22:03:18.738Z,93.50
2019-01-18T22:06:26.218Z,93.50
2019-01-18T22:12:39.122Z,93.60
2019-01-18T22:15:41.394Z,93.70
2019-01-18T22:18:48.582Z,93.80
2019-01-18T22:21:42.057Z,93.90
2019-01-18T22:24:49.266Z,94.00
2019-01-18T22:27:56.477Z,94.20
2019-01-18T22:31:03.664Z,94.20
2019-01-18T22:34:10.863Z,93.80
2019-01-18T22:37:18.118Z,93.60
2019-01-18T22:40:25.297Z,93.50
2019-01-18T22:43:32.501Z,93.50
2019-01-18T22:46:39.691Z,93.50
2019-01-18T22:49:46.898Z,93.50
2019-01-18T22:52:38.349Z,93.70
2019-01-18T22:55:45.577Z,93.70
2019-01-18T22:58:52.785Z,93.60
